Williamstown, OH (45897)

1:31 PM EDT on March 24, 2017 (GMT -0400)
KOHARLIN2 | | Change Station

Elev 850 ft 40.87 °N, 83.66 °W | Updated 3 seconds ago

Clear
Clear
69.0 °F
Feels Like 69.0 °F
N
5.0
Wind Variable Wind from SW
Gusts 28.0 mph

Today
High -- | Low -- °F
--% Chance of Precip.
Yesterday
High -- | Low -- °F
Precip. -- in
Pressure 30.05 in
Visibility 10.0 miles
Clouds Clear
Dew Point 54 °F
Humidity 59%
Rainfall 0.07 in
Snow Depth Not available.
7:30 AM 7:51 PM
Waning Crescent, 14% visible
METAR KFDY 241653Z AUTO 22022G31KT 10SM CLR 20/10 A3006 RMK AO2 PK WND 23032/1638 SLP175 T02000100
Pressure 30.05 in
Visibility 10.0 miles
Clouds Clear
Dew Point 54 °F
Humidity 59%
Rainfall 0.07 in
Snow Depth Not available.
7:30 AM 7:51 PM
Waning Crescent, 14% visible
METAR KFDY 241653Z AUTO 22022G31KT 10SM CLR 20/10 A3006 RMK AO2 PK WND 23032/1638 SLP175 T02000100

Get Severe Weather Alerts

Thanks for signing up!

Be on the lookout for a verification email in your inbox.

You'll start receiving the daily forecast at 8 AM.

×

10-Day Weather Forecast

Almanac

Astronomy

Mar. 24, 2017 Rise Set
Actual Time
Civil Twilight
Nautical Twilight
Astronomical Twilight
Moon
Length of Visible Light
Length of Day
Tomorrow will be .
, % of the Moon is Illuminated

Today's Extremes

State Highs State Lows

Community

WunderPhotos

Upload Photos

1,962,540 photos uploaded!

WunderBlog® & News

Nearby

Air Quality

  Air Quality AQ Index Pollutant
Not available.

Snow Depth

Station Depth Elevation

Earthquake Activity

City Distance Mag. Time & Date
Minimum magnitude displayed is 2.5.

Earthquake Activity

City Distance Mag. Time & Date
Minimum magnitude displayed is 2.5.

Coastal Water Temperatures

Place Temperature

Stations

Nearby Weather Stations

Station Location Temp. Windchill Dew Point Humidity Wind Precip. Elev Updated Type
                   

Watches & Warnings

There are currently no watches in effect.